Time;durP1;ratioP1;P1;durP2;ratioP2;P2;SDS_P1;SDS_P2;PMS_P1;PMS_P2;Temp;Humidity;BMP_temperature;BMP_pressure;BME280_temperature;BME280_humidity;BME280_pressure;Samples;Min_cycle;Max_cycle;Signal;HPM_P1;HPM_P2
2023/09/13 00:00:48;;;;;;;38.95;27.27;;;;;;;;;;5070931;28;20029;-60
2023/09/13 00:03:13;;;;;;;33.08;27.65;;;;;;;;;;5072564;28;20017;-61
2023/09/13 00:05:40;;;;;;;30.92;24.35;;;;;;;;;;5070353;28;20028;-61
2023/09/13 00:08:05;;;;;;;46.40;27.95;;;;;;;;;;5070970;28;20031;-68
2023/09/13 00:10:31;;;;;;;38.50;26.35;;;;;;;;;;5070637;28;20032;-61
2023/09/13 00:12:56;;;;;;;35.45;27.30;;;;;;;;;;5070603;28;20016;-61
2023/09/13 00:15:21;;;;;;;37.47;26.73;;;;;;;;;;5070486;28;20507;-63
2023/09/13 00:17:46;;;;;;;35.57;26.27;;;;;;;;;;5072080;28;20024;-62
2023/09/13 00:20:11;;;;;;;35.80;26.43;;;;;;;;;;5069656;28;20032;-61
2023/09/13 00:22:37;;;;;;;37.15;26.40;;;;;;;;;;5071744;28;20017;-61
2023/09/13 00:25:02;;;;;;;38.00;28.40;;;;;;;;;;5072323;28;20349;-62
2023/09/13 00:27:28;;;;;;;40.85;30.98;;;;;;;;;;5069833;28;20501;-61
2023/09/13 00:29:53;;;;;;;39.83;31.00;;;;;;;;;;5072287;28;20033;-61
2023/09/13 00:32:18;;;;;;;30.23;26.98;;;;;;;;;;5070330;28;20116;-61
2023/09/13 00:34:43;;;;;;;38.40;28.67;;;;;;;;;;5071228;28;20114;-61
2023/09/13 00:37:08;;;;;;;36.78;26.63;;;;;;;;;;5070225;28;20115;-61
2023/09/13 00:39:34;;;;;;;37.20;28.47;;;;;;;;;;5071271;28;20515;-61
2023/09/13 00:41:59;;;;;;;35.92;27.08;;;;;;;;;;5069236;28;20052;-61
2023/09/13 00:44:24;;;;;;;39.08;28.42;;;;;;;;;;5071636;28;20407;-61
2023/09/13 00:46:49;;;;;;;35.72;28.77;;;;;;;;;;5070002;28;20075;-61
2023/09/13 00:49:15;;;;;;;41.90;30.23;;;;;;;;;;5071146;28;20157;-61
2023/09/13 00:51:40;;;;;;;36.08;31.35;;;;;;;;;;5069575;28;20524;-61
2023/09/13 00:54:06;;;;;;;38.83;28.85;;;;;;;;;;5071913;28;20028;-61
2023/09/13 00:56:32;;;;;;;35.45;31.52;;;;;;;;;;5069299;28;20490;-61
2023/09/13 00:58:57;;;;;;;33.78;28.00;;;;;;;;;;5071250;28;20471;-61
2023/09/13 01:01:23;;;;;;;36.85;31.10;;;;;;;;;;5069796;28;20024;-61
2023/09/13 01:03:48;;;;;;;36.47;30.63;;;;;;;;;;5070739;28;20020;-61
2023/09/13 01:06:13;;;;;;;43.75;33.33;;;;;;;;;;5069727;28;20029;-61
2023/09/13 01:08:41;;;;;;;42.53;32.83;;;;;;;;;;5071071;28;20412;-61
2023/09/13 01:11:06;;;;;;;34.35;26.73;;;;;;;;;;5069335;28;20055;-61
2023/09/13 01:13:32;;;;;;;35.30;26.33;;;;;;;;;;5071047;28;20401;-62
2023/09/13 01:15:57;;;;;;;43.83;31.17;;;;;;;;;;5069783;28;20888;-60
2023/09/13 01:18:27;;;;;;;37.17;29.17;;;;;;;;;;5070436;28;20028;-61
2023/09/13 01:21:05;;;;;;;35.58;24.38;;;;;;;;;;5069097;28;20027;-61
2023/09/13 01:23:30;;;;;;;37.17;24.45;;;;;;;;;;5070881;28;20019;-61
2023/09/13 01:26:07;;;;;;;37.35;28.25;;;;;;;;;;5069040;28;20029;-60
2023/09/13 01:28:49;;;;;;;44.92;28.60;;;;;;;;;;5070536;28;20024;-61
2023/09/13 01:31:18;;;;;;;39.80;31.00;;;;;;;;;;5068990;28;20033;-60
2023/09/13 01:33:44;;;;;;;36.83;27.17;;;;;;;;;;5070317;28;20017;-60
2023/09/13 01:36:10;;;;;;;36.80;26.98;;;;;;;;;;5069092;28;20029;-61
2023/09/13 01:38:35;;;;;;;39.20;28.58;;;;;;;;;;5069851;28;20070;-61
2023/09/13 01:41:19;;;;;;;51.83;31.52;;;;;;;;;;5068972;28;20483;-72
2023/09/13 01:43:45;;;;;;;42.58;30.65;;;;;;;;;;5070234;28;20059;-61
2023/09/13 01:46:11;;;;;;;51.63;32.90;;;;;;;;;;5069203;28;20024;-62
2023/09/13 01:48:37;;;;;;;41.88;31.38;;;;;;;;;;5069758;28;20135;-61
2023/09/13 01:51:02;;;;;;;40.38;29.52;;;;;;;;;;5069295;28;20480;-62
2023/09/13 01:53:28;;;;;;;39.72;27.60;;;;;;;;;;5070283;28;20134;-61
2023/09/13 01:55:53;;;;;;;46.85;33.28;;;;;;;;;;5068720;28;20028;-61
2023/09/13 01:58:18;;;;;;;40.00;26.70;;;;;;;;;;5070150;28;20506;-61
2023/09/13 02:00:43;;;;;;;49.35;31.35;;;;;;;;;;5068584;28;20537;-62
2023/09/13 02:03:08;;;;;;;40.43;29.40;;;;;;;;;;5069918;28;20013;-68
2023/09/13 02:05:34;;;;;;;49.55;30.98;;;;;;;;;;5067182;28;20089;-61
2023/09/13 02:07:59;;;;;;;50.47;29.17;;;;;;;;;;5070427;28;20052;-61
2023/09/13 02:10:24;;;;;;;40.10;28.60;;;;;;;;;;5068421;28;20472;-61
2023/09/13 02:12:49;;;;;;;41.97;29.43;;;;;;;;;;5070332;28;20115;-61
2023/09/13 02:15:14;;;;;;;44.27;31.60;;;;;;;;;;5068842;28;20468;-61
2023/09/13 02:17:40;;;;;;;37.10;26.13;;;;;;;;;;5069395;28;20024;-61
2023/09/13 02:20:06;;;;;;;37.92;24.88;;;;;;;;;;5070291;28;20469;-61
2023/09/13 02:22:31;;;;;;;40.20;26.63;;;;;;;;;;5068283;28;20484;-64
2023/09/13 02:24:56;;;;;;;45.83;28.73;;;;;;;;;;5069535;28;20021;-61
2023/09/13 02:27:21;;;;;;;43.20;30.23;;;;;;;;;;5068818;28;20043;-61
2023/09/13 02:29:46;;;;;;;43.03;30.42;;;;;;;;;;5069946;28;20419;-61
2023/09/13 02:32:12;;;;;;;40.03;29.65;;;;;;;;;;5069952;28;20106;-61
2023/09/13 02:34:37;;;;;;;50.55;32.10;;;;;;;;;;5073839;28;20395;-62
2023/09/13 02:37:02;;;;;;;52.45;34.08;;;;;;;;;;5072702;28;20055;-62
2023/09/13 02:39:31;;;;;;;53.83;34.47;;;;;;;;;;5073620;28;20048;-61
2023/09/13 02:41:56;;;;;;;46.45;31.95;;;;;;;;;;5072462;28;20448;-61
2023/09/13 02:44:22;;;;;;;45.35;29.88;;;;;;;;;;5074074;28;20027;-61
2023/09/13 02:46:47;;;;;;;60.50;33.83;;;;;;;;;;5071832;28;20468;-61
2023/09/13 02:49:12;;;;;;;46.47;32.40;;;;;;;;;;5073665;28;20017;-61
2023/09/13 02:51:37;;;;;;;57.85;34.55;;;;;;;;;;5072384;28;20438;-61
2023/09/13 02:54:02;;;;;;;51.90;34.47;;;;;;;;;;5073463;28;20013;-61
2023/09/13 02:56:27;;;;;;;43.50;31.70;;;;;;;;;;5072026;28;20494;-61
2023/09/13 02:58:53;;;;;;;50.57;30.73;;;;;;;;;;5073834;28;20458;-73
2023/09/13 03:01:18;;;;;;;59.13;34.87;;;;;;;;;;5071496;28;20104;-61
2023/09/13 03:03:43;;;;;;;59.20;34.63;;;;;;;;;;5073283;28;20556;-61
2023/09/13 03:06:11;;;;;;;43.65;32.22;;;;;;;;;;5070719;28;20520;-61
2023/09/13 03:08:36;;;;;;;57.83;36.88;;;;;;;;;;5073190;28;20021;-62
2023/09/13 03:11:15;;;;;;;58.13;37.85;;;;;;;;;;5072377;28;20166;-61
2023/09/13 03:13:40;;;;;;;51.33;33.53;;;;;;;;;;5071447;28;20124;-69
2023/09/13 03:16:12;;;;;;;54.23;35.73;;;;;;;;;;5071620;28;20182;-61
2023/09/13 03:18:37;;;;;;;58.15;35.83;;;;;;;;;;5073133;28;20507;-62
2023/09/13 03:21:05;;;;;;;63.55;35.80;;;;;;;;;;5071175;28;20033;-61
2023/09/13 03:23:30;;;;;;;52.77;34.23;;;;;;;;;;5072639;28;20016;-61
2023/09/13 03:25:56;;;;;;;51.35;34.00;;;;;;;;;;5071967;28;20465;-61
2023/09/13 03:28:21;;;;;;;49.53;34.60;;;;;;;;;;5072554;28;20054;-61
2023/09/13 03:30:46;;;;;;;55.67;33.40;;;;;;;;;;5071149;28;20036;-61
2023/09/13 03:33:11;;;;;;;55.40;32.50;;;;;;;;;;5073205;28;20600;-61
2023/09/13 03:35:36;;;;;;;65.80;35.70;;;;;;;;;;5071435;28;20056;-61
2023/09/13 03:38:01;;;;;;;61.08;35.45;;;;;;;;;;5072671;28;20054;-61
2023/09/13 03:40:26;;;;;;;53.83;35.47;;;;;;;;;;5071473;28;20486;-73
2023/09/13 03:42:52;;;;;;;58.20;34.30;;;;;;;;;;5072181;28;20021;-61
2023/09/13 03:45:17;;;;;;;56.22;34.92;;;;;;;;;;5071319;28;20637;-61
2023/09/13 03:47:42;;;;;;;56.17;35.30;;;;;;;;;;5072375;28;20070;-65
2023/09/13 03:50:08;;;;;;;60.15;37.03;;;;;;;;;;5072746;28;20023;-61
2023/09/13 03:52:33;;;;;;;62.85;36.53;;;;;;;;;;5069719;28;20119;-61
2023/09/13 03:54:58;;;;;;;71.47;38.33;;;;;;;;;;5072337;28;20016;-61
2023/09/13 03:57:23;;;;;;;56.92;36.40;;;;;;;;;;5071165;28;20119;-61
2023/09/13 03:59:48;;;;;;;53.13;34.72;;;;;;;;;;5072742;28;20432;-61
2023/09/13 04:02:13;;;;;;;58.43;37.53;;;;;;;;;;5070566;28;20110;-61
2023/09/13 04:04:39;;;;;;;58.92;34.30;;;;;;;;;;5072322;28;20526;-61
2023/09/13 04:07:05;;;;;;;62.53;35.05;;;;;;;;;;5071147;28;20033;-61
2023/09/13 04:09:30;;;;;;;59.53;32.70;;;;;;;;;;5071765;28;20021;-61
2023/09/13 04:11:55;;;;;;;53.47;32.38;;;;;;;;;;5070852;28;20049;-61
2023/09/13 04:14:20;;;;;;;52.60;33.85;;;;;;;;;;5072568;28;20095;-61
2023/09/13 04:16:45;;;;;;;70.53;36.83;;;;;;;;;;5069048;28;20487;-74
2023/09/13 04:19:11;;;;;;;60.22;35.97;;;;;;;;;;5071961;28;20052;-63
2023/09/13 04:21:36;;;;;;;71.55;37.65;;;;;;;;;;5070543;28;20383;-61
2023/09/13 04:24:02;;;;;;;57.23;33.80;;;;;;;;;;5071915;28;20024;-61
2023/09/13 04:26:28;;;;;;;55.00;35.35;;;;;;;;;;5070398;28;20029;-61
2023/09/13 04:28:53;;;;;;;58.83;35.67;;;;;;;;;;5072135;28;20020;-61
2023/09/13 04:31:18;;;;;;;55.30;34.15;;;;;;;;;;5070193;28;20133;-61
2023/09/13 04:33:46;;;;;;;48.47;33.22;;;;;;;;;;5071765;28;20916;-60
2023/09/13 04:36:12;;;;;;;56.35;32.47;;;;;;;;;;5070666;28;20033;-61
2023/09/13 04:38:37;;;;;;;53.50;35.07;;;;;;;;;;5071024;28;20420;-61
2023/09/13 04:41:03;;;;;;;56.25;37.28;;;;;;;;;;5069159;28;20038;-61
2023/09/13 04:43:28;;;;;;;58.45;35.47;;;;;;;;;;5071590;28;20096;-61
2023/09/13 04:45:53;;;;;;;55.30;35.00;;;;;;;;;;5070046;28;20112;-60
2023/09/13 04:48:19;;;;;;;63.70;37.90;;;;;;;;;;5072121;28;20025;-61
2023/09/13 04:50:44;;;;;;;62.37;38.03;;;;;;;;;;5070207;28;20507;-61
2023/09/13 04:53:09;;;;;;;52.17;34.78;;;;;;;;;;5071250;28;20820;-72
2023/09/13 04:55:34;;;;;;;58.83;35.00;;;;;;;;;;5069226;28;20498;-61
2023/09/13 04:57:59;;;;;;;53.33;31.65;;;;;;;;;;5071593;28;20497;-60
2023/09/13 05:00:26;;;;;;;52.63;32.10;;;;;;;;;;5070050;28;20017;-60
2023/09/13 05:02:51;;;;;;;59.72;34.78;;;;;;;;;;5071056;28;20031;-61
2023/09/13 05:05:17;;;;;;;56.97;31.83;;;;;;;;;;5070223;28;20456;-61
2023/09/13 05:07:42;;;;;;;55.60;31.27;;;;;;;;;;5070875;28;20050;-61
2023/09/13 05:10:07;;;;;;;50.07;28.77;;;;;;;;;;5071281;28;20020;-60
2023/09/13 05:12:32;;;;;;;48.03;27.63;;;;;;;;;;5069620;28;20037;-60
2023/09/13 05:14:57;;;;;;;56.72;31.17;;;;;;;;;;5070805;28;20631;-60
2023/09/13 05:17:23;;;;;;;38.55;27.23;;;;;;;;;;5069440;28;20028;-61
2023/09/13 05:19:48;;;;;;;43.90;27.63;;;;;;;;;;5070879;28;20017;-60
2023/09/13 05:22:13;;;;;;;45.78;29.42;;;;;;;;;;5069213;28;20036;-60
2023/09/13 05:24:38;;;;;;;32.05;24.17;;;;;;;;;;5070878;28;20487;-61
2023/09/13 05:27:04;;;;;;;29.25;22.15;;;;;;;;;;5069665;28;20039;-63
2023/09/13 05:29:29;;;;;;;37.53;23.42;;;;;;;;;;5070459;28;20074;-70
2023/09/13 05:31:54;;;;;;;33.25;25.05;;;;;;;;;;5069569;28;20051;-59
2023/09/13 05:34:20;;;;;;;34.90;21.83;;;;;;;;;;5069691;28;20039;-60
2023/09/13 05:36:45;;;;;;;31.87;24.60;;;;;;;;;;5068595;28;20024;-58
2023/09/13 05:39:11;;;;;;;34.70;24.65;;;;;;;;;;5070338;28;20101;-58
2023/09/13 05:41:37;;;;;;;33.05;22.77;;;;;;;;;;5068807;28;20043;-58
2023/09/13 05:44:02;;;;;;;30.52;21.42;;;;;;;;;;5070421;28;20016;-58
2023/09/13 05:46:27;;;;;;;35.33;22.95;;;;;;;;;;5069046;28;20072;-58
2023/09/13 05:48:53;;;;;;;31.73;22.65;;;;;;;;;;5070314;28;20016;-58
2023/09/13 05:51:19;;;;;;;30.88;21.23;;;;;;;;;;5068549;28;20522;-58
2023/09/13 05:53:44;;;;;;;32.40;19.95;;;;;;;;;;5070080;28;20613;-58
2023/09/13 05:56:10;;;;;;;31.13;22.15;;;;;;;;;;5068992;28;20111;-58
2023/09/13 05:58:35;;;;;;;30.13;19.50;;;;;;;;;;5069636;28;20570;-57
2023/09/13 06:01:00;;;;;;;38.08;24.50;;;;;;;;;;5068921;28;20029;-65
2023/09/13 06:03:25;;;;;;;35.23;21.60;;;;;;;;;;5070556;28;20085;-58
2023/09/13 06:05:51;;;;;;;39.75;26.02;;;;;;;;;;5068526;28;20025;-67
2023/09/13 06:08:16;;;;;;;37.43;24.27;;;;;;;;;;5069898;28;20067;-58
2023/09/13 06:10:41;;;;;;;31.88;23.27;;;;;;;;;;5068517;28;20044;-58
2023/09/13 06:13:07;;;;;;;32.40;22.98;;;;;;;;;;5070116;28;20031;-58
2023/09/13 06:15:32;;;;;;;34.78;25.48;;;;;;;;;;5067923;28;20399;-58
2023/09/13 06:17:57;;;;;;;32.50;22.52;;;;;;;;;;5069349;28;20131;-58
2023/09/13 06:20:22;;;;;;;42.70;26.02;;;;;;;;;;5067622;28;20024;-58
2023/09/13 06:22:47;;;;;;;34.05;25.77;;;;;;;;;;5069213;28;20039;-58
2023/09/13 06:25:16;;;;;;;34.33;25.47;;;;;;;;;;5070056;28;20094;-58
2023/09/13 06:27:42;;;;;;;42.22;29.13;;;;;;;;;;5069033;28;20047;-58
2023/09/13 06:30:07;;;;;;;42.80;26.58;;;;;;;;;;5069496;28;20024;-57
2023/09/13 06:32:32;;;;;;;42.90;28.17;;;;;;;;;;5061828;28;20049;-60
2023/09/13 06:34:58;;;;;;;41.97;28.03;;;;;;;;;;5067206;28;20020;-60
2023/09/13 06:37:24;;;;;;;42.17;27.98;;;;;;;;;;5065236;28;20504;-58
2023/09/13 06:39:49;;;;;;;47.47;31.58;;;;;;;;;;5049336;28;20041;-58
2023/09/13 06:42:14;;;;;;;51.90;29.67;;;;;;;;;;5048293;28;20041;-58
2023/09/13 06:44:40;;;;;;;69.03;39.43;;;;;;;;;;5049248;28;20056;-58
2023/09/13 06:47:05;;;;;;;65.03;35.47;;;;;;;;;;5048447;28;20036;-58
2023/09/13 06:49:30;;;;;;;63.03;39.43;;;;;;;;;;5053678;28;20028;-58
2023/09/13 06:51:55;;;;;;;58.35;35.75;;;;;;;;;;5047921;28;20455;-58
2023/09/13 06:54:20;;;;;;;66.20;39.27;;;;;;;;;;5049528;28;20525;-58
2023/09/13 06:56:46;;;;;;;69.00;41.03;;;;;;;;;;5048065;28;20037;-58
2023/09/13 06:59:11;;;;;;;59.60;40.47;;;;;;;;;;5047811;28;20594;-58
2023/09/13 07:01:36;;;;;;;63.00;42.30;;;;;;;;;;5048210;28;20033;-58
2023/09/13 07:04:03;;;;;;;60.45;39.75;;;;;;;;;;5049852;28;20047;-57
2023/09/13 07:06:28;;;;;;;56.55;39.55;;;;;;;;;;5047542;28;20031;-58
2023/09/13 07:08:53;;;;;;;62.27;42.20;;;;;;;;;;5049850;28;20021;-58
2023/09/13 07:11:18;;;;;;;57.17;41.03;;;;;;;;;;5048327;28;20041;-58
2023/09/13 07:13:43;;;;;;;52.70;34.40;;;;;;;;;;5049061;28;20605;-57
2023/09/13 07:16:08;;;;;;;58.80;38.88;;;;;;;;;;5048266;28;20071;-58
2023/09/13 07:18:33;;;;;;;55.70;36.30;;;;;;;;;;5050866;28;20025;-60
2023/09/13 07:20:59;;;;;;;49.60;34.53;;;;;;;;;;5051812;28;20450;-58
2023/09/13 07:23:24;;;;;;;32.53;24.23;;;;;;;;;;5058312;28;20352;-60
2023/09/13 07:25:49;;;;;;;9.30;7.28;;;;;;;;;;5070614;28;20442;-60
2023/09/13 07:28:14;;;;;;;6.37;4.73;;;;;;;;;;5073003;28;20386;-59
2023/09/13 07:30:40;;;;;;;2.60;2.40;;;;;;;;;;5071512;28;20037;-60
2023/09/13 07:33:05;;;;;;;4.20;1.50;;;;;;;;;;5072840;28;20044;-59
2023/09/13 07:35:30;;;;;;;5.85;2.13;;;;;;;;;;5070814;28;20101;-60
2023/09/13 07:37:55;;;;;;;5.00;1.93;;;;;;;;;;5072852;28;20028;-59
2023/09/13 07:40:20;;;;;;;1.30;1.20;;;;;;;;;;5069237;28;20477;-65
2023/09/13 07:42:45;;;;;;;3.30;1.50;;;;;;;;;;5070682;28;20016;-60
2023/09/13 07:45:10;;;;;;;4.65;1.55;;;;;;;;;;5071122;28;20023;-58
2023/09/13 07:47:36;;;;;;;4.40;1.93;;;;;;;;;;5058640;28;20484;-59
2023/09/13 07:50:01;;;;;;;3.90;1.58;;;;;;;;;;5052057;28;20024;-59
2023/09/13 07:52:26;;;;;;;1.83;1.70;;;;;;;;;;5051133;28;20180;-59
2023/09/13 07:54:51;;;;;;;3.47;1.47;;;;;;;;;;5052347;28;20421;-62
2023/09/13 07:57:17;;;;;;;4.95;1.80;;;;;;;;;;5050748;28;20385;-59
2023/09/13 07:59:42;;;;;;;2.25;1.52;;;;;;;;;;5065378;28;20021;-59
2023/09/13 08:02:07;;;;;;;4.67;2.17;;;;;;;;;;5070598;28;20029;-59
2023/09/13 08:04:33;;;;;;;1.50;1.30;;;;;;;;;;5072133;28;20059;-59
2023/09/13 08:06:59;;;;;;;3.85;1.40;;;;;;;;;;5070968;28;20452;-59
2023/09/13 08:09:24;;;;;;;4.13;2.35;;;;;;;;;;5072405;28;20063;-58
2023/09/13 08:11:50;;;;;;;2.93;1.47;;;;;;;;;;5070342;28;20032;-59
2023/09/13 08:14:15;;;;;;;1.52;1.38;;;;;;;;;;5071525;28;20501;-60
2023/09/13 08:16:41;;;;;;;2.78;1.75;;;;;;;;;;5063527;28;20118;-59
2023/09/13 08:19:08;;;;;;;2.20;1.70;;;;;;;;;;5051922;28;20361;-59
2023/09/13 08:21:33;;;;;;;1.80;1.70;;;;;;;;;;5050369;28;20091;-59
2023/09/13 08:23:59;;;;;;;4.18;1.92;;;;;;;;;;5052061;28;20025;-58
2023/09/13 08:26:24;;;;;;;2.08;1.27;;;;;;;;;;5050671;28;20605;-59
2023/09/13 08:28:49;;;;;;;5.00;1.98;;;;;;;;;;5050640;28;20017;-59
2023/09/13 08:31:15;;;;;;;4.30;2.03;;;;;;;;;;5050376;28;20457;-61
2023/09/13 08:33:40;;;;;;;2.00;1.67;;;;;;;;;;5051864;28;20033;-59
2023/09/13 08:36:05;;;;;;;9.33;3.73;;;;;;;;;;5050018;28;20029;-59
2023/09/13 08:38:30;;;;;;;6.20;2.90;;;;;;;;;;5051448;28;20135;-59
2023/09/13 08:40:55;;;;;;;5.13;2.95;;;;;;;;;;5053661;28;20029;-59
2023/09/13 08:43:21;;;;;;;4.03;2.22;;;;;;;;;;5070737;28;20012;-60
2023/09/13 08:45:47;;;;;;;3.45;2.97;;;;;;;;;;5064746;28;20483;-62
2023/09/13 08:48:13;;;;;;;2.95;2.72;;;;;;;;;;5051618;28;20493;-59
2023/09/13 08:50:39;;;;;;;3.72;2.30;;;;;;;;;;5053388;28;20037;-58
2023/09/13 08:53:05;;;;;;;3.53;2.17;;;;;;;;;;5070685;28;20483;-59
2023/09/13 08:55:31;;;;;;;7.25;2.58;;;;;;;;;;5070012;28;20074;-59
2023/09/13 08:57:57;;;;;;;3.88;3.33;;;;;;;;;;5071127;28;20020;-59
2023/09/13 09:00:25;;;;;;;4.07;3.03;;;;;;;;;;5068622;28;20021;-59
2023/09/13 09:02:52;;;;;;;7.75;4.95;;;;;;;;;;5051048;28;20017;-59
2023/09/13 09:05:17;;;;;;;6.10;3.58;;;;;;;;;;5050654;28;20020;-59
2023/09/13 09:07:44;;;;;;;6.20;3.10;;;;;;;;;;5071251;28;20033;-59
2023/09/13 09:10:12;;;;;;;3.72;2.83;;;;;;;;;;5071419;28;20028;-59
2023/09/13 09:12:40;;;;;;;4.35;3.38;;;;;;;;;;5069401;28;20063;-59
2023/09/13 09:15:07;;;;;;;3.15;2.22;;;;;;;;;;5071218;28;20504;-59
2023/09/13 09:17:33;;;;;;;4.13;1.95;;;;;;;;;;5049569;28;20033;-59
2023/09/13 09:19:59;;;;;;;5.00;1.80;;;;;;;;;;5050663;28;20439;-59
2023/09/13 09:22:24;;;;;;;1.92;1.80;;;;;;;;;;5067987;28;20061;-68
2023/09/13 09:24:50;;;;;;;3.27;2.53;;;;;;;;;;5070810;28;20472;-60
2023/09/13 09:27:15;;;;;;;2.42;1.83;;;;;;;;;;5051920;28;20479;-59
2023/09/13 09:29:40;;;;;;;3.75;1.65;;;;;;;;;;5050806;28;20027;-58
2023/09/13 09:32:08;;;;;;;3.50;2.60;;;;;;;;;;5065755;28;20377;-58
2023/09/13 09:34:36;;;;;;;1.70;1.50;;;;;;;;;;5070466;28;20422;-59
2023/09/13 09:37:03;;;;;;;1.60;1.50;;;;;;;;;;5053495;28;20114;-59
2023/09/13 09:39:29;;;;;;;3.53;2.13;;;;;;;;;;5050028;28;20052;-59
2023/09/13 09:41:57;;;;;;;5.72;1.70;;;;;;;;;;5063359;28;20029;-59
2023/09/13 09:44:26;;;;;;;1.98;1.38;;;;;;;;;;5070583;28;20017;-60
2023/09/13 09:46:52;;;;;;;3.58;2.03;;;;;;;;;;5050606;28;20381;-59
2023/09/13 09:49:17;;;;;;;2.17;1.70;;;;;;;;;;5030291;28;20028;-60
2023/09/13 09:51:42;;;;;;;3.17;2.13;;;;;;;;;;5042259;28;20128;-59
2023/09/13 09:54:07;;;;;;;3.10;1.40;;;;;;;;;;5050430;28;20017;-59
2023/09/13 09:56:32;;;;;;;1.13;1.03;;;;;;;;;;5036627;28;20049;-60
2023/09/13 09:58:57;;;;;;;3.07;1.53;;;;;;;;;;5030392;28;20567;-59
2023/09/13 10:01:23;;;;;;;5.63;1.80;;;;;;;;;;5042686;28;20025;-59
2023/09/13 10:03:51;;;;;;;2.77;1.30;;;;;;;;;;5049244;28;20028;-59
2023/09/13 10:06:16;;;;;;;2.13;1.10;;;;;;;;;;5058523;28;20035;-60
2023/09/13 10:08:45;;;;;;;1.90;1.10;;;;;;;;;;5054245;28;20025;-60
2023/09/13 10:11:12;;;;;;;2.45;1.42;;;;;;;;;;5057316;28;20060;-60
2023/09/13 10:13:38;;;;;;;2.25;1.25;;;;;;;;;;5070322;28;20021;-60
2023/09/13 10:16:05;;;;;;;2.88;1.50;;;;;;;;;;5068518;28;20043;-60
2023/09/13 10:18:32;;;;;;;1.90;1.10;;;;;;;;;;5069664;28;20356;-60
2023/09/13 10:20:58;;;;;;;3.08;1.80;;;;;;;;;;5066310;28;20088;-59
2023/09/13 10:23:36;;;;;;;1.70;1.58;;;;;;;;;;5066558;28;20064;-59
2023/09/13 10:26:02;;;;;;;2.58;1.48;;;;;;;;;;5065824;28;20059;-59
2023/09/13 10:28:29;;;;;;;2.15;1.48;;;;;;;;;;5069000;28;20487;-59
2023/09/13 10:30:56;;;;;;;2.60;1.40;;;;;;;;;;5067548;28;20032;-59
2023/09/13 10:33:21;;;;;;;1.80;1.00;;;;;;;;;;5068947;28;20078;-61
2023/09/13 10:35:47;;;;;;;2.45;1.77;;;;;;;;;;5067787;28;20392;-59
2023/09/13 10:38:15;;;;;;;3.72;1.20;;;;;;;;;;5069266;28;20043;-59
2023/09/13 10:40:43;;;;;;;2.50;1.60;;;;;;;;;;5067466;28;20025;-59
2023/09/13 10:43:08;;;;;;;3.78;1.58;;;;;;;;;;5069018;28;20016;-59
2023/09/13 10:45:33;;;;;;;2.90;1.70;;;;;;;;;;5067749;28;20505;-59
2023/09/13 10:47:59;;;;;;;5.18;2.20;;;;;;;;;;5069756;28;20035;-59
2023/09/13 10:50:25;;;;;;;1.10;1.02;;;;;;;;;;5064696;28;20115;-59
2023/09/13 10:52:50;;;;;;;4.30;1.17;;;;;;;;;;5051033;28;20447;-59
2023/09/13 10:55:15;;;;;;;1.10;1.00;;;;;;;;;;5052318;28;20013;-59
2023/09/13 10:57:41;;;;;;;2.35;1.17;;;;;;;;;;5053560;28;20546;-59
2023/09/13 11:00:10;;;;;;;1.45;1.33;;;;;;;;;;5052405;28;20025;-58
2023/09/13 11:02:35;;;;;;;2.35;1.40;;;;;;;;;;5053041;28;20017;-59
2023/09/13 11:05:00;;;;;;;3.50;1.52;;;;;;;;;;5053784;28;20020;-59
2023/09/13 11:07:26;;;;;;;2.80;2.60;;;;;;;;;;5052322;28;20400;-59
2023/09/13 11:09:51;;;;;;;2.77;1.77;;;;;;;;;;5052904;28;20407;-59
2023/09/13 11:12:16;;;;;;;3.35;2.72;;;;;;;;;;5052084;28;20978;-68
2023/09/13 11:14:49;;;;;;;7.80;2.07;;;;;;;;;;5053378;28;20152;-59
2023/09/13 11:17:37;;;;;;;6.63;2.70;;;;;;;;;;5051746;28;21236;-59
2023/09/13 11:20:21;;;;;;;6.60;3.03;;;;;;;;;;5053402;28;20020;-59
2023/09/13 11:22:59;;;;;;;6.63;2.30;;;;;;;;;;5071572;28;20492;-62
2023/09/13 11:25:24;;;;;;;5.80;3.20;;;;;;;;;;5071569;28;20531;-60
2023/09/13 11:27:49;;;;;;;4.20;2.88;;;;;;;;;;5072978;28;20115;-59
2023/09/13 11:30:15;;;;;;;6.60;3.10;;;;;;;;;;5071879;28;20017;-59
2023/09/13 11:32:42;;;;;;;3.73;3.03;;;;;;;;;;5072561;28;20017;-59
2023/09/13 11:35:10;;;;;;;5.38;3.33;;;;;;;;;;5071674;28;20487;-57
2023/09/13 11:37:35;;;;;;;8.50;3.83;;;;;;;;;;5069620;28;20035;-59
2023/09/13 11:40:10;;;;;;;9.52;2.70;;;;;;;;;;5072125;28;20049;-59
2023/09/13 11:42:36;;;;;;;4.60;2.45;;;;;;;;;;5071094;28;20059;-59
2023/09/13 11:45:05;;;;;;;5.10;2.47;;;;;;;;;;5053711;28;20718;-59
2023/09/13 11:47:33;;;;;;;4.13;3.42;;;;;;;;;;5050537;28;20033;-59
2023/09/13 11:49:58;;;;;;;;;;;;;;;;;;5053370;28;20070;-58
2023/09/13 11:52:24;;;;;;;6.32;3.10;;;;;;;;;;5050989;28;19909;-59
2023/09/13 11:54:57;;;;;;;7.57;2.70;;;;;;;;;;5051977;28;20329;-59
2023/09/13 11:57:22;;;;;;;3.75;2.85;;;;;;;;;;5050842;28;20037;-58
2023/09/13 11:59:53;;;;;;;6.40;3.30;;;;;;;;;;5052591;28;20023;-59
2023/09/13 12:02:18;;;;;;;4.45;2.92;;;;;;;;;;5050624;28;20615;-59
2023/09/13 12:04:43;;;;;;;5.93;3.03;;;;;;;;;;5051971;28;20009;-63
2023/09/13 12:07:09;;;;;;;5.40;2.75;;;;;;;;;;5050910;28;20033;-59
2023/09/13 12:09:35;;;;;;;5.70;3.40;;;;;;;;;;5051997;28;20040;-59
2023/09/13 12:12:00;;;;;;;8.63;2.40;;;;;;;;;;5050810;28;20037;-59
2023/09/13 12:14:25;;;;;;;3.53;2.20;;;;;;;;;;5052351;28;20017;-59
2023/09/13 12:16:51;;;;;;;4.07;2.90;;;;;;;;;;5049827;28;20451;-59
2023/09/13 12:19:17;;;;;;;9.18;3.72;;;;;;;;;;5052512;28;20379;-59
2023/09/13 12:21:45;;;;;;;5.15;2.60;;;;;;;;;;5050688;28;20053;-59
2023/09/13 12:24:13;;;;;;;11.35;3.22;;;;;;;;;;5051616;28;20025;-59
2023/09/13 12:26:39;;;;;;;3.55;2.55;;;;;;;;;;5050266;28;20036;-60
2023/09/13 12:29:04;;;;;;;8.77;3.17;;;;;;;;;;5052273;28;20082;-59
2023/09/13 12:31:29;;;;;;;5.38;2.65;;;;;;;;;;5049604;28;20033;-59
2023/09/13 12:33:55;;;;;;;8.57;5.33;;;;;;;;;;5052091;28;20033;-59
2023/09/13 12:36:21;;;;;;;5.43;3.22;;;;;;;;;;5050104;28;20095;-59
2023/09/13 12:38:48;;;;;;;7.03;2.88;;;;;;;;;;5051175;28;20044;-61
2023/09/13 12:41:14;;;;;;;10.65;2.85;;;;;;;;;;5050321;28;20078;-59
2023/09/13 12:43:43;;;;;;;3.53;2.78;;;;;;;;;;5051334;28;20017;-59
2023/09/13 12:46:10;;;;;;;5.00;2.67;;;;;;;;;;5050003;28;20033;-59
2023/09/13 12:48:36;;;;;;;5.63;2.35;;;;;;;;;;5063127;28;20037;-59
2023/09/13 12:51:01;;;;;;;2.63;1.92;;;;;;;;;;5069795;28;20032;-72
2023/09/13 12:53:27;;;;;;;3.38;2.53;;;;;;;;;;5071563;28;20387;-59
2023/09/13 12:55:52;;;;;;;2.45;1.83;;;;;;;;;;5069200;28;20034;-60
2023/09/13 12:58:18;;;;;;;2.80;1.73;;;;;;;;;;5069040;28;20031;-60
2023/09/13 13:00:54;;;;;;;3.03;2.00;;;;;;;;;;5069651;28;20509;-59
2023/09/13 13:03:20;;;;;;;6.53;2.38;;;;;;;;;;5071502;28;20016;-59
2023/09/13 13:05:48;;;;;;;5.13;2.55;;;;;;;;;;5069888;28;20056;-60
2023/09/13 13:08:13;;;;;;;6.88;3.17;;;;;;;;;;5069937;28;20024;-59
2023/09/13 13:10:54;;;;;;;13.38;4.05;;;;;;;;;;5069593;28;20033;-59
2023/09/13 13:13:20;;;;;;;6.30;2.15;;;;;;;;;;5071082;28;20020;-59
2023/09/13 13:15:46;;;;;;;8.25;3.28;;;;;;;;;;5068630;28;20025;-59
2023/09/13 13:18:11;;;;;;;5.10;2.55;;;;;;;;;;5071328;28;20467;-60
2023/09/13 13:20:43;;;;;;;12.25;2.47;;;;;;;;;;5069553;28;20028;-60
2023/09/13 13:23:08;;;;;;;8.23;3.65;;;;;;;;;;5070481;28;20070;-62
2023/09/13 13:25:33;;;;;;;4.63;2.53;;;;;;;;;;5067798;28;20048;-59
2023/09/13 13:27:58;;;;;;;8.00;2.85;;;;;;;;;;5070912;28;20021;-59
2023/09/13 13:30:23;;;;;;;6.25;2.33;;;;;;;;;;5069195;28;20052;-59
2023/09/13 13:32:49;;;;;;;5.87;3.07;;;;;;;;;;5070496;28;20093;-59
2023/09/13 13:35:14;;;;;;;4.67;2.73;;;;;;;;;;5069294;28;20035;-59
2023/09/13 13:37:45;;;;;;;5.60;1.92;;;;;;;;;;5069950;28;20108;-59
2023/09/13 13:40:10;;;;;;;10.60;2.90;;;;;;;;;;5068194;28;20116;-58
2023/09/13 13:42:36;;;;;;;14.07;3.10;;;;;;;;;;5069456;28;20203;-58
2023/09/13 13:45:01;;;;;;;8.10;2.37;;;;;;;;;;5069304;28;20020;-58
2023/09/13 13:47:26;;;;;;;19.23;3.40;;;;;;;;;;5067537;28;20094;-58
2023/09/13 13:49:51;;;;;;;5.80;3.45;;;;;;;;;;5069346;28;20247;-59
2023/09/13 13:52:17;;;;;;;8.33;2.60;;;;;;;;;;5067883;28;20029;-58
2023/09/13 13:54:42;;;;;;;4.75;2.30;;;;;;;;;;5060802;28;20071;-59
2023/09/13 13:57:07;;;;;;;6.00;2.80;;;;;;;;;;5051698;28;20033;-59
2023/09/13 13:59:33;;;;;;;4.83;2.30;;;;;;;;;;5049638;28;20100;-58
2023/09/13 14:01:58;;;;;;;4.22;1.80;;;;;;;;;;5047387;28;20033;-59
2023/09/13 14:04:23;;;;;;;6.32;2.60;;;;;;;;;;5049449;28;20019;-59
2023/09/13 14:06:48;;;;;;;6.55;2.17;;;;;;;;;;5048059;28;20033;-59
2023/09/13 14:09:16;;;;;;;3.30;2.40;;;;;;;;;;5049240;28;20503;-59
2023/09/13 14:11:42;;;;;;;4.27;2.50;;;;;;;;;;5048043;28;20044;-58
2023/09/13 14:14:07;;;;;;;5.35;2.75;;;;;;;;;;5063821;28;20033;-65
2023/09/13 14:16:32;;;;;;;4.78;3.25;;;;;;;;;;5062780;28;20033;-59
2023/09/13 14:18:57;;;;;;;3.80;2.67;;;;;;;;;;5049543;28;20025;-59
2023/09/13 14:21:22;;;;;;;4.35;2.92;;;;;;;;;;5047893;28;20025;-59